Terminal Aerodrome Forecast
Issued by NWS

Home | Current Version | Previous Version | Text Only | Print | Product List | Glossary On
Versions: 1 2 3 4 5 6 7 8 9 10 11 12
000
FTUS41 KBTV 241120
TAFPBG
TAF
KPBG 241120Z 2412/2512 17016G29KT P6SM BKN045
     FM241400 17018G34KT P6SM VCSH BKN040
     FM241600 17019G33KT P6SM -SHRA OVC035
     FM241900 16016G24KT 3SM +SHRA BR OVC015
     FM242300 15009KT P6SM -SHRA OVC018
     FM250500 21004KT P6SM OVC035=

USA.gov is the U.S. government's official web portal to all federal, state and local government web resources and services.